sensor_id;sensor_type;location;lat;lon;timestamp;pressure;altitude;pressure_sealevel;temperature;humidity
21664;BME280;10993;52.510;13.456;2023-02-28T00:04:44;56568.88;;;-146.93;56.40
21664;BME280;10993;52.510;13.456;2023-02-28T00:09:45;56540.53;;;-146.93;55.83
21664;BME280;10993;52.510;13.456;2023-02-28T00:14:45;56540.53;;;-146.93;55.35
21664;BME280;10993;52.510;13.456;2023-02-28T00:19:47;56773.38;;;-146.93;55.06
21664;BME280;10993;52.510;13.456;2023-02-28T00:24:48;56556.75;;;-146.93;56.15
21664;BME280;10993;52.510;13.456;2023-02-28T00:29:48;56560.78;;;-146.93;55.97
21664;BME280;10993;52.510;13.456;2023-02-28T00:34:50;56579.00;;;-146.93;56.81
21664;BME280;10993;52.510;13.456;2023-02-28T00:39:50;56544.59;;;-146.93;56.07
21664;BME280;10993;52.510;13.456;2023-02-28T00:44:51;56566.88;;;-146.93;56.22
21664;BME280;10993;52.510;13.456;2023-02-28T00:49:52;56528.41;;;-146.93;56.07
21664;BME280;10993;52.510;13.456;2023-02-28T00:54:53;56536.50;;;-146.93;56.27
21664;BME280;10993;52.510;13.456;2023-02-28T00:59:53;56520.28;;;-146.93;56.33
21664;BME280;10993;52.510;13.456;2023-02-28T01:04:57;56554.72;;;-146.93;57.07
21664;BME280;10993;52.510;13.456;2023-02-28T01:09:58;56585.09;;;-146.93;57.38
21664;BME280;10993;52.510;13.456;2023-02-28T01:14:58;56554.72;;;-146.93;57.93
21664;BME280;10993;52.510;13.456;2023-02-28T01:20:00;56572.94;;;-146.93;57.54
21664;BME280;10993;52.510;13.456;2023-02-28T01:25:00;56601.28;;;-146.93;57.93
21664;BME280;10993;52.510;13.456;2023-02-28T01:30:00;56581.03;;;-146.93;57.86
21664;BME280;10993;52.510;13.456;2023-02-28T01:35:02;56574.97;;;-146.93;58.63
21664;BME280;10993;52.510;13.456;2023-02-28T01:40:03;56581.03;;;-146.93;59.18
21664;BME280;10993;52.510;13.456;2023-02-28T01:45:17;56577.00;;;-146.93;60.06
21664;BME280;10993;52.510;13.456;2023-02-28T01:50:22;56566.88;;;-146.93;61.04
21664;BME280;10993;52.510;13.456;2023-02-28T01:55:25;56583.06;;;-146.93;62.42
21664;BME280;10993;52.510;13.456;2023-02-28T02:00:30;56550.66;;;-146.93;62.57
21664;BME280;10993;52.510;13.456;2023-02-28T02:05:31;56615.47;;;-146.93;63.12
21664;BME280;10993;52.510;13.456;2023-02-28T02:10:35;56564.84;;;-146.93;64.06
21664;BME280;10993;52.510;13.456;2023-02-28T02:15:40;56601.28;;;-146.93;63.59
21664;BME280;10993;52.510;13.456;2023-02-28T02:21:16;56605.34;;;-146.93;64.25
21664;BME280;10993;52.510;13.456;2023-02-28T02:26:44;56603.31;;;-146.93;65.23
21664;BME280;10993;52.510;13.456;2023-02-28T02:32:01;56550.66;;;-146.93;65.28
21664;BME280;10993;52.510;13.456;2023-02-28T02:37:15;56635.72;;;-146.93;67.22
21664;BME280;10993;52.510;13.456;2023-02-28T02:42:22;56566.88;;;-146.93;65.91
21664;BME280;10993;52.510;13.456;2023-02-28T02:47:26;56617.47;;;-146.93;66.66
21664;BME280;10993;52.510;13.456;2023-02-28T02:52:33;56653.94;;;-146.93;67.23
21664;BME280;10993;52.510;13.456;2023-02-28T02:57:38;56568.88;;;-146.93;68.32
21664;BME280;10993;52.510;13.456;2023-02-28T03:02:43;56637.72;;;-146.93;68.56
21664;BME280;10993;52.510;13.456;2023-02-28T03:07:45;56587.13;;;-146.93;67.87
21664;BME280;10993;52.510;13.456;2023-02-28T03:12:51;56629.63;;;-146.93;67.25
21664;BME280;10993;52.510;13.456;2023-02-28T03:18:01;56627.59;;;-146.93;67.10
21664;BME280;10993;52.510;13.456;2023-02-28T03:23:15;56647.84;;;-146.93;67.81
21664;BME280;10993;52.510;13.456;2023-02-28T03:28:19;56603.31;;;-146.93;67.12
21664;BME280;10993;52.510;13.456;2023-02-28T03:33:24;56599.25;;;-146.93;68.39
21664;BME280;10993;52.510;13.456;2023-02-28T03:38:32;56629.63;;;-146.93;66.78
21664;BME280;10993;52.510;13.456;2023-02-28T03:43:36;56605.34;;;-146.93;67.99
21664;BME280;10993;52.510;13.456;2023-02-28T03:48:40;56639.75;;;-146.93;68.56
21664;BME280;10993;52.510;13.456;2023-02-28T03:53:45;56609.38;;;-146.93;68.35
21664;BME280;10993;52.510;13.456;2023-02-28T03:58:51;56629.63;;;-146.93;68.74
21664;BME280;10993;52.510;13.456;2023-02-28T04:03:54;56627.59;;;-146.93;69.73
21664;BME280;10993;52.510;13.456;2023-02-28T04:08:56;56653.94;;;-146.93;69.11
21664;BME280;10993;52.510;13.456;2023-02-28T04:13:56;56635.72;;;-146.93;69.20
21664;BME280;10993;52.510;13.456;2023-02-28T04:18:57;56682.28;;;-146.93;70.34
21664;BME280;10993;52.510;13.456;2023-02-28T04:24:04;56664.06;;;-146.93;71.15
21664;BME280;10993;52.510;13.456;2023-02-28T04:29:07;56643.81;;;-146.93;71.31
21664;BME280;10993;52.510;13.456;2023-02-28T04:34:07;56615.47;;;-146.93;70.61
21664;BME280;10993;52.510;13.456;2023-02-28T04:39:09;56668.09;;;-146.93;70.13
21664;BME280;10993;52.510;13.456;2023-02-28T04:44:09;56518.28;;;-146.93;70.16
21664;BME280;10993;52.510;13.456;2023-02-28T04:49:11;56631.66;;;-146.93;71.35
21664;BME280;10993;52.510;13.456;2023-02-28T04:54:13;56625.59;;;-146.93;71.12
21664;BME280;10993;52.510;13.456;2023-02-28T04:59:14;56680.25;;;-146.93;70.85
21664;BME280;10993;52.510;13.456;2023-02-28T05:04:14;56635.72;;;-146.93;70.81
21664;BME280;10993;52.510;13.456;2023-02-28T05:09:16;56637.72;;;-146.93;71.38
21664;BME280;10993;52.510;13.456;2023-02-28T05:14:16;56680.25;;;-146.93;71.89
21664;BME280;10993;52.510;13.456;2023-02-28T05:19:17;56564.84;;;-146.93;71.89
21664;BME280;10993;52.510;13.456;2023-02-28T05:24:19;56641.78;;;-146.93;71.14
21664;BME280;10993;52.510;13.456;2023-02-28T05:29:25;56674.19;;;-146.93;71.05
21664;BME280;10993;52.510;13.456;2023-02-28T05:34:25;56664.06;;;-146.93;72.05
21664;BME280;10993;52.510;13.456;2023-02-28T05:39:27;56595.22;;;-146.93;72.45
21664;BME280;10993;52.510;13.456;2023-02-28T05:44:27;56702.53;;;-146.93;72.09
21664;BME280;10993;52.510;13.456;2023-02-28T05:49:28;56684.31;;;-146.93;71.53
21664;BME280;10993;52.510;13.456;2023-02-28T05:54:29;56668.09;;;-146.93;70.69
21664;BME280;10993;52.510;13.456;2023-02-28T05:59:30;56645.81;;;-146.93;70.97
21664;BME280;10993;52.510;13.456;2023-02-28T06:04:30;56678.22;;;-146.93;71.17
21664;BME280;10993;52.510;13.456;2023-02-28T06:09:32;56621.53;;;-146.93;70.40
21664;BME280;10993;52.510;13.456;2023-02-28T06:14:33;56649.88;;;-146.93;68.58
21664;BME280;10993;52.510;13.456;2023-02-28T06:19:33;56627.59;;;-146.93;67.71
21664;BME280;10993;52.510;13.456;2023-02-28T06:24:35;56619.50;;;-146.93;66.44
21664;BME280;10993;52.510;13.456;2023-02-28T06:29:35;56532.44;;;-146.93;65.02
21664;BME280;10993;52.510;13.456;2023-02-28T06:34:37;56589.13;;;-146.93;63.18
21664;BME280;10993;52.510;13.456;2023-02-28T06:39:39;56564.84;;;-146.93;61.08
21664;BME280;10993;52.510;13.456;2023-02-28T06:44:39;56558.75;;;-146.93;57.87
21664;BME280;10993;52.510;13.456;2023-02-28T06:49:40;56556.75;;;-146.93;52.12
21664;BME280;10993;52.510;13.456;2023-02-28T06:54:41;56530.41;;;-146.93;47.38
21664;BME280;10993;52.510;13.456;2023-02-28T06:59:42;56526.38;;;-146.93;45.07
21664;BME280;10993;52.510;13.456;2023-02-28T07:04:42;56471.72;;;-146.93;43.37
21664;BME280;10993;52.510;13.456;2023-02-28T07:09:46;56536.50;;;-146.93;40.22
21664;BME280;10993;52.510;13.456;2023-02-28T07:14:46;56538.53;;;-146.93;40.18
21664;BME280;10993;52.510;13.456;2023-02-28T07:19:46;56524.34;;;-146.93;38.58
21664;BME280;10993;52.510;13.456;2023-02-28T07:24:48;56570.91;;;-146.93;37.15
21664;BME280;10993;52.510;13.456;2023-02-28T07:29:48;56645.81;;;-146.93;32.71
21664;BME280;10993;52.510;13.456;2023-02-28T07:34:49;56694.41;;;-146.93;30.95
21664;BME280;10993;52.510;13.456;2023-02-28T07:39:50;56787.56;;;-146.93;28.63
21664;BME280;10993;52.510;13.456;2023-02-28T07:44:51;56791.63;;;-146.93;28.89
21664;BME280;10993;52.510;13.456;2023-02-28T07:49:53;56898.94;;;-146.93;26.96
21664;BME280;10993;52.510;13.456;2023-02-28T07:54:54;56949.56;;;-146.93;25.27
21664;BME280;10993;52.510;13.456;2023-02-28T07:59:55;57040.69;;;-146.93;23.85
21664;BME280;10993;52.510;13.456;2023-02-28T08:04:55;56884.75;;;-146.93;25.10
21664;BME280;10993;52.510;13.456;2023-02-28T08:09:57;57188.50;;;-146.93;22.79
21664;BME280;10993;52.510;13.456;2023-02-28T08:14:57;57026.50;;;-146.93;23.29
21664;BME280;10993;52.510;13.456;2023-02-28T08:19:58;57121.69;;;-146.93;22.54
21664;BME280;10993;52.510;13.456;2023-02-28T08:25:00;57101.44;;;-146.93;22.04
21664;BME280;10993;52.510;13.456;2023-02-28T08:30:00;57148.00;;;-146.93;22.35
21664;BME280;10993;52.510;13.456;2023-02-28T08:35:00;57026.50;;;-146.93;23.47
21664;BME280;10993;52.510;13.456;2023-02-28T08:40:04;57259.38;;;-146.93;23.11
21664;BME280;10993;52.510;13.456;2023-02-28T08:45:06;57121.69;;;-146.93;22.00
21664;BME280;10993;52.510;13.456;2023-02-28T08:50:07;57376.84;;;-146.93;22.67
21664;BME280;10993;52.510;13.456;2023-02-28T08:55:10;56905.00;;;-146.93;22.79
21664;BME280;10993;52.510;13.456;2023-02-28T09:00:11;56732.91;;;-146.93;23.59
21664;BME280;10993;52.510;13.456;2023-02-28T09:05:13;56905.00;;;-146.93;23.25
21664;BME280;10993;52.510;13.456;2023-02-28T09:10:15;56917.16;;;-146.93;23.06
21664;BME280;10993;52.510;13.456;2023-02-28T09:15:16;56803.75;;;-146.93;23.07
21664;BME280;10993;52.510;13.456;2023-02-28T09:20:17;56902.97;;;-146.93;23.96
21664;BME280;10993;52.510;13.456;2023-02-28T09:25:18;56969.81;;;-146.93;22.46
21664;BME280;10993;52.510;13.456;2023-02-28T09:30:19;57137.88;;;-146.93;22.33
21664;BME280;10993;52.510;13.456;2023-02-28T09:35:19;57127.75;;;-146.93;21.39
21664;BME280;10993;52.510;13.456;2023-02-28T09:40:24;57093.31;;;-146.93;22.11
21664;BME280;10993;52.510;13.456;2023-02-28T09:45:30;57160.16;;;-146.93;21.25
21664;BME280;10993;52.510;13.456;2023-02-28T09:50:35;57105.47;;;-146.93;21.58
21664;BME280;10993;52.510;13.456;2023-02-28T09:55:41;56923.22;;;-146.93;22.23
21664;BME280;10993;52.510;13.456;2023-02-28T10:00:51;57038.66;;;-146.93;22.05
21664;BME280;10993;52.510;13.456;2023-02-28T10:05:59;56832.13;;;-146.93;22.54
21664;BME280;10993;52.510;13.456;2023-02-28T10:11:07;56850.34;;;-146.93;23.22
21664;BME280;10993;52.510;13.456;2023-02-28T10:16:11;56973.84;;;-146.93;21.71
21664;BME280;10993;52.510;13.456;2023-02-28T10:21:17;56755.16;;;-146.93;23.48
21664;BME280;10993;52.510;13.456;2023-02-28T10:26:20;56747.06;;;-146.93;23.88
21664;BME280;10993;52.510;13.456;2023-02-28T10:31:20;56860.47;;;-146.93;23.62
21664;BME280;10993;52.510;13.456;2023-02-28T10:36:21;56819.97;;;-146.93;23.37
21664;BME280;10993;52.510;13.456;2023-02-28T10:41:30;57143.94;;;-146.93;21.72
21664;BME280;10993;52.510;13.456;2023-02-28T10:46:36;56830.09;;;-146.93;22.67
21664;BME280;10993;52.510;13.456;2023-02-28T10:51:38;56852.34;;;-146.93;22.04
21664;BME280;10993;52.510;13.456;2023-02-28T10:56:40;57073.06;;;-146.93;22.08
21664;BME280;10993;52.510;13.456;2023-02-28T11:01:42;56850.34;;;-146.93;22.98
21664;BME280;10993;52.510;13.456;2023-02-28T11:06:45;57067.00;;;-146.93;22.10
21664;BME280;10993;52.510;13.456;2023-02-28T11:11:49;57079.16;;;-146.93;21.55
21664;BME280;10993;52.510;13.456;2023-02-28T11:16:50;57062.94;;;-146.93;22.13
21664;BME280;10993;52.510;13.456;2023-02-28T11:21:54;57083.19;;;-146.93;22.25
21664;BME280;10993;52.510;13.456;2023-02-28T11:26:58;57101.44;;;-146.93;21.66
21664;BME280;10993;52.510;13.456;2023-02-28T11:32:05;57224.97;;;-146.93;21.87
21664;BME280;10993;52.510;13.456;2023-02-28T11:37:11;57449.75;;;-146.93;21.35
21664;BME280;10993;52.510;13.456;2023-02-28T11:42:22;57220.91;;;-146.93;21.29
21664;BME280;10993;52.510;13.456;2023-02-28T11:47:32;56817.94;;;-146.93;24.25
21664;BME280;10993;52.510;13.456;2023-02-28T11:52:40;56765.28;;;-146.93;24.37
21664;BME280;10993;52.510;13.456;2023-02-28T11:57:53;56708.59;;;-146.93;25.67
21664;BME280;10993;52.510;13.456;2023-02-28T12:03:06;56795.66;;;-146.93;24.75
21664;BME280;10993;52.510;13.456;2023-02-28T12:08:23;56817.94;;;-146.93;24.16
21664;BME280;10993;52.510;13.456;2023-02-28T12:13:37;56775.41;;;-146.93;24.29
21664;BME280;10993;52.510;13.456;2023-02-28T12:19:01;56797.69;;;-146.93;23.61
21664;BME280;10993;52.510;13.456;2023-02-28T12:24:19;56718.72;;;-146.93;25.15
21664;BME280;10993;52.510;13.456;2023-02-28T12:29:28;56694.41;;;-146.93;24.07
21664;BME280;10993;52.510;13.456;2023-02-28T12:34:33;56641.78;;;-146.93;25.30
21664;BME280;10993;52.510;13.456;2023-02-28T12:39:40;56552.69;;;-146.93;26.58
21664;BME280;10993;52.510;13.456;2023-02-28T12:44:49;56406.91;;;-146.93;28.46
21664;BME280;10993;52.510;13.456;2023-02-28T12:49:55;56443.38;;;-146.93;29.59
21664;BME280;10993;52.510;13.456;2023-02-28T12:55:02;56504.09;;;-146.93;30.37
21664;BME280;10993;52.510;13.456;2023-02-28T13:00:10;56477.78;;;-146.93;30.86
21664;BME280;10993;52.510;13.456;2023-02-28T13:05:39;56506.13;;;-146.93;30.84
21664;BME280;10993;52.510;13.456;2023-02-28T13:10:48;56496.00;;;-146.93;31.06
21664;BME280;10993;52.510;13.456;2023-02-28T13:16:04;56427.16;;;-146.93;31.12
21664;BME280;10993;52.510;13.456;2023-02-28T13:21:06;56483.84;;;-146.93;31.38
21664;BME280;10993;52.510;13.456;2023-02-28T13:26:08;56406.91;;;-146.93;30.68
21664;BME280;10993;52.510;13.456;2023-02-28T13:31:09;56496.00;;;-146.93;30.78
21664;BME280;10993;52.510;13.456;2023-02-28T13:36:23;56439.31;;;-146.93;30.77
21664;BME280;10993;52.510;13.456;2023-02-28T13:41:46;56496.00;;;-146.93;31.54
21664;BME280;10993;52.510;13.456;2023-02-28T13:52:26;56487.91;;;-146.93;31.44
21664;BME280;10993;52.510;13.456;2023-02-28T13:57:37;56518.28;;;-146.93;31.44
21664;BME280;10993;52.510;13.456;2023-02-28T14:02:52;56479.81;;;-146.93;30.99
21664;BME280;10993;52.510;13.456;2023-02-28T14:08:04;56496.00;;;-146.93;31.28
21664;BME280;10993;52.510;13.456;2023-02-28T14:13:38;56479.81;;;-146.93;31.48
21664;BME280;10993;52.510;13.456;2023-02-28T14:18:49;56483.84;;;-146.93;31.67
21664;BME280;10993;52.510;13.456;2023-02-28T14:29:43;56467.66;;;-146.93;31.60
21664;BME280;10993;52.510;13.456;2023-02-28T14:34:50;56496.00;;;-146.93;31.70
21664;BME280;10993;52.510;13.456;2023-02-28T14:39:54;56489.94;;;-146.93;31.68
21664;BME280;10993;52.510;13.456;2023-02-28T14:44:56;56481.84;;;-146.93;32.31
21664;BME280;10993;52.510;13.456;2023-02-28T14:49:58;56429.19;;;-146.93;31.82
21664;BME280;10993;52.510;13.456;2023-02-28T14:55:03;56471.72;;;-146.93;31.65
21664;BME280;10993;52.510;13.456;2023-02-28T15:00:11;56449.44;;;-146.93;31.78
21664;BME280;10993;52.510;13.456;2023-02-28T15:05:27;56475.75;;;-146.93;32.57
21664;BME280;10993;52.510;13.456;2023-02-28T15:10:29;56455.50;;;-146.93;31.76
21664;BME280;10993;52.510;13.456;2023-02-28T15:15:42;56508.16;;;-146.93;31.97
21664;BME280;10993;52.510;13.456;2023-02-28T15:20:43;56487.91;;;-146.93;32.72
21664;BME280;10993;52.510;13.456;2023-02-28T15:25:46;56506.13;;;-146.93;33.08
21664;BME280;10993;52.510;13.456;2023-02-28T15:30:55;56493.97;;;-146.93;33.02
21664;BME280;10993;52.510;13.456;2023-02-28T15:36:10;56487.91;;;-146.93;32.54
21664;BME280;10993;52.510;13.456;2023-02-28T15:41:25;56516.25;;;-146.93;33.19
21664;BME280;10993;52.510;13.456;2023-02-28T15:46:25;56477.78;;;-146.93;33.48
21664;BME280;10993;52.510;13.456;2023-02-28T15:51:30;57271.53;;;-146.93;33.60
21664;BME280;10993;52.510;13.456;2023-02-28T15:56:38;56508.16;;;-146.93;33.29
21664;BME280;10993;52.510;13.456;2023-02-28T16:01:39;56483.84;;;-146.93;33.99
21664;BME280;10993;52.510;13.456;2023-02-28T16:06:40;56491.94;;;-146.93;34.14
21664;BME280;10993;52.510;13.456;2023-02-28T16:11:47;56382.63;;;-146.93;33.96
21664;BME280;10993;52.510;13.456;2023-02-28T16:16:49;56506.13;;;-146.93;33.83
21664;BME280;10993;52.510;13.456;2023-02-28T16:21:51;57451.78;;;-146.93;33.99
21664;BME280;10993;52.510;13.456;2023-02-28T16:26:55;56479.81;;;-146.93;34.59
21664;BME280;10993;52.510;13.456;2023-02-28T16:31:57;56475.75;;;-146.93;34.96
21664;BME280;10993;52.510;13.456;2023-02-28T16:36:57;56489.94;;;-146.93;34.72
21664;BME280;10993;52.510;13.456;2023-02-28T16:42:00;56408.94;;;-146.93;34.67
21664;BME280;10993;52.510;13.456;2023-02-28T16:47:00;56483.84;;;-146.93;35.18
21664;BME280;10993;52.510;13.456;2023-02-28T16:52:01;56451.47;;;-146.93;35.52
21664;BME280;10993;52.510;13.456;2023-02-28T16:57:03;56471.72;;;-146.93;35.40
21664;BME280;10993;52.510;13.456;2023-02-28T17:02:10;56475.75;;;-146.93;35.66
21664;BME280;10993;52.510;13.456;2023-02-28T17:07:13;56510.19;;;-146.93;35.79
21664;BME280;10993;52.510;13.456;2023-02-28T17:12:15;56481.84;;;-146.93;36.13
21664;BME280;10993;52.510;13.456;2023-02-28T17:17:21;56502.06;;;-146.93;36.53
21664;BME280;10993;52.510;13.456;2023-02-28T17:22:21;56502.06;;;-146.93;36.33
21664;BME280;10993;52.510;13.456;2023-02-28T17:27:23;56483.84;;;-146.93;37.17
21664;BME280;10993;52.510;13.456;2023-02-28T17:32:23;56548.66;;;-146.93;36.67
21664;BME280;10993;52.510;13.456;2023-02-28T17:37:24;56508.16;;;-146.93;37.21
21664;BME280;10993;52.510;13.456;2023-02-28T17:42:25;56431.22;;;-146.93;37.65
21664;BME280;10993;52.510;13.456;2023-02-28T17:47:26;56504.09;;;-146.93;37.55
21664;BME280;10993;52.510;13.456;2023-02-28T17:52:26;56516.25;;;-146.93;37.76
21664;BME280;10993;52.510;13.456;2023-02-28T17:57:28;56475.75;;;-146.93;37.87
21664;BME280;10993;52.510;13.456;2023-02-28T18:02:28;56453.47;;;-146.93;38.83
21664;BME280;10993;52.510;13.456;2023-02-28T18:07:28;56890.84;;;-146.93;38.61
21664;BME280;10993;52.510;13.456;2023-02-28T18:12:30;56493.97;;;-146.93;38.49
21664;BME280;10993;52.510;13.456;2023-02-28T18:17:31;56496.00;;;-146.93;38.96
21664;BME280;10993;52.510;13.456;2023-02-28T18:22:31;56475.75;;;-146.93;39.19
21664;BME280;10993;52.510;13.456;2023-02-28T18:27:33;56483.84;;;-146.93;38.82
21664;BME280;10993;52.510;13.456;2023-02-28T18:32:34;56500.06;;;-146.93;39.32
21664;BME280;10993;52.510;13.456;2023-02-28T18:37:34;56496.00;;;-146.93;39.96
21664;BME280;10993;52.510;13.456;2023-02-28T18:42:36;56510.19;;;-146.93;39.40
21664;BME280;10993;52.510;13.456;2023-02-28T18:47:38;56528.41;;;-146.93;40.95
21664;BME280;10993;52.510;13.456;2023-02-28T18:52:39;56485.88;;;-146.93;40.83
21664;BME280;10993;52.510;13.456;2023-02-28T18:57:40;56487.91;;;-146.93;41.07
21664;BME280;10993;52.510;13.456;2023-02-28T19:02:41;56500.06;;;-146.93;41.27
21664;BME280;10993;52.510;13.456;2023-02-28T19:07:42;56516.25;;;-146.93;41.66
21664;BME280;10993;52.510;13.456;2023-02-28T19:12:43;56536.50;;;-146.93;42.52
21664;BME280;10993;52.510;13.456;2023-02-28T19:17:44;56455.50;;;-146.93;42.20
21664;BME280;10993;52.510;13.456;2023-02-28T19:22:45;56544.59;;;-146.93;42.30
21664;BME280;10993;52.510;13.456;2023-02-28T19:27:47;56528.41;;;-146.93;42.91
21664;BME280;10993;52.510;13.456;2023-02-28T19:32:47;56536.50;;;-146.93;42.55
21664;BME280;10993;52.510;13.456;2023-02-28T19:37:48;56540.53;;;-146.93;43.42
21664;BME280;10993;52.510;13.456;2023-02-28T19:42:50;56512.19;;;-146.93;43.29
21664;BME280;10993;52.510;13.456;2023-02-28T19:47:51;56504.09;;;-146.93;43.26
21664;BME280;10993;52.510;13.456;2023-02-28T19:52:51;56528.41;;;-146.93;43.00
21664;BME280;10993;52.510;13.456;2023-02-28T19:57:53;56544.59;;;-146.93;43.52
21664;BME280;10993;52.510;13.456;2023-02-28T20:02:53;56530.41;;;-146.93;43.88
21664;BME280;10993;52.510;13.456;2023-02-28T20:07:54;56520.28;;;-146.93;44.09
21664;BME280;10993;52.510;13.456;2023-02-28T20:12:56;56556.75;;;-146.93;43.92
21664;BME280;10993;52.510;13.456;2023-02-28T20:17:56;56540.53;;;-146.93;44.76
21664;BME280;10993;52.510;13.456;2023-02-28T20:22:58;56532.44;;;-146.93;45.39
21664;BME280;10993;52.510;13.456;2023-02-28T20:28:00;56526.38;;;-146.93;45.22
21664;BME280;10993;52.510;13.456;2023-02-28T20:33:01;56526.38;;;-146.93;46.16
21664;BME280;10993;52.510;13.456;2023-02-28T20:38:01;56532.44;;;-146.93;46.28
21664;BME280;10993;52.510;13.456;2023-02-28T20:43:03;56528.41;;;-146.93;45.68
21664;BME280;10993;52.510;13.456;2023-02-28T20:48:03;56516.25;;;-146.93;45.08
21664;BME280;10993;52.510;13.456;2023-02-28T20:53:04;56538.53;;;-146.93;45.88
21664;BME280;10993;52.510;13.456;2023-02-28T20:58:06;56479.81;;;-146.93;46.08
21664;BME280;10993;52.510;13.456;2023-02-28T21:03:06;56461.59;;;-146.93;47.50
21664;BME280;10993;52.510;13.456;2023-02-28T21:08:06;56568.88;;;-146.93;48.71
21664;BME280;10993;52.510;13.456;2023-02-28T21:13:08;56536.50;;;-146.93;49.32
21664;BME280;10993;52.510;13.456;2023-02-28T21:18:11;56394.78;;;-146.93;49.87
21664;BME280;10993;52.510;13.456;2023-02-28T21:23:11;56540.53;;;-146.93;51.22
21664;BME280;10993;52.510;13.456;2023-02-28T21:28:13;56534.47;;;-146.93;52.00
21664;BME280;10993;52.510;13.456;2023-02-28T21:33:14;56512.19;;;-146.93;51.58
21664;BME280;10993;52.510;13.456;2023-02-28T21:38:14;56548.66;;;-146.93;51.72
21664;BME280;10993;52.510;13.456;2023-02-28T21:43:16;56384.66;;;-146.93;52.21
21664;BME280;10993;52.510;13.456;2023-02-28T21:48:16;56591.16;;;-146.93;52.56
21664;BME280;10993;52.510;13.456;2023-02-28T21:53:17;56581.03;;;-146.93;52.68
21664;BME280;10993;52.510;13.456;2023-02-28T21:58:18;56577.00;;;-146.93;52.83
21664;BME280;10993;52.510;13.456;2023-02-28T22:03:19;56538.53;;;-146.93;52.36
21664;BME280;10993;52.510;13.456;2023-02-28T22:08:19;56572.94;;;-146.93;52.00
21664;BME280;10993;52.510;13.456;2023-02-28T22:13:21;55872.47;;;-146.93;52.74
21664;BME280;10993;52.510;13.456;2023-02-28T22:18:21;56577.00;;;-146.93;52.85
21664;BME280;10993;52.510;13.456;2023-02-28T22:23:22;56585.09;;;-146.93;53.16
21664;BME280;10993;52.510;13.456;2023-02-28T22:28:24;56593.19;;;-146.93;53.42
21664;BME280;10993;52.510;13.456;2023-02-28T22:33:26;56558.75;;;-146.93;53.60
21664;BME280;10993;52.510;13.456;2023-02-28T22:38:27;56583.06;;;-146.93;52.77
21664;BME280;10993;52.510;13.456;2023-02-28T22:43:28;56601.28;;;-146.93;52.14
21664;BME280;10993;52.510;13.456;2023-02-28T22:48:29;56540.53;;;-146.93;52.63
21664;BME280;10993;52.510;13.456;2023-02-28T22:53:30;56479.81;;;-146.93;53.51
21664;BME280;10993;52.510;13.456;2023-02-28T22:58:32;56583.06;;;-146.93;54.92
21664;BME280;10993;52.510;13.456;2023-02-28T23:03:32;56605.34;;;-146.93;55.60
21664;BME280;10993;52.510;13.456;2023-02-28T23:08:33;56566.88;;;-146.93;55.69
21664;BME280;10993;52.510;13.456;2023-02-28T23:13:35;56617.47;;;-146.93;56.32
21664;BME280;10993;52.510;13.456;2023-02-28T23:18:35;56589.13;;;-146.93;56.33
21664;BME280;10993;52.510;13.456;2023-02-28T23:23:36;56522.31;;;-146.93;57.00
21664;BME280;10993;52.510;13.456;2023-02-28T23:28:37;56619.50;;;-146.93;56.95
21664;BME280;10993;52.510;13.456;2023-02-28T23:33:38;56577.00;;;-146.93;56.75
21664;BME280;10993;52.510;13.456;2023-02-28T23:38:40;56524.34;;;-146.93;56.60
21664;BME280;10993;52.510;13.456;2023-02-28T23:43:42;56589.13;;;-146.93;55.63
21664;BME280;10993;52.510;13.456;2023-02-28T23:48:43;56957.66;;;-146.93;56.58
21664;BME280;10993;52.510;13.456;2023-02-28T23:53:45;56542.56;;;-146.93;56.84
21664;BME280;10993;52.510;13.456;2023-02-28T23:58:47;56589.13;;;-146.93;57.70
